createdAt,value
2023-03-22T00:01:22.607Z,39.38
2023-03-22T00:03:51.546Z,38.67
2023-03-22T00:06:19.119Z,40.35
2023-03-22T00:08:50.597Z,37.03
2023-03-22T00:11:18.153Z,43.47
2023-03-22T00:13:46.834Z,48.35
2023-03-22T00:16:14.225Z,39.95
2023-03-22T00:18:41.209Z,44.75
2023-03-22T00:21:12.256Z,42.30
2023-03-22T00:23:39.303Z,43.25
2023-03-22T00:26:06.126Z,37.42
2023-03-22T00:28:32.623Z,38.05
2023-03-22T00:31:00.902Z,40.78
2023-03-22T00:33:29.225Z,37.08
2023-03-22T00:36:01.306Z,39.80
2023-03-22T00:38:42.809Z,43.67
2023-03-22T00:41:11.428Z,38.63
2023-03-22T00:43:38.455Z,43.40
2023-03-22T00:46:05.584Z,38.78
2023-03-22T00:48:32.056Z,37.33
2023-03-22T00:50:58.536Z,34.38
2023-03-22T00:53:25.056Z,32.95
2023-03-22T00:55:51.769Z,37.13
2023-03-22T00:58:18.249Z,33.63
2023-03-22T01:00:45.234Z,35.78
2023-03-22T01:03:15.989Z,33.03
2023-03-22T01:05:46.089Z,34.07
2023-03-22T01:08:12.858Z,32.20
2023-03-22T01:10:41.263Z,28.17
2023-03-22T01:13:08.694Z,37.38
2023-03-22T01:15:35.222Z,33.50
2023-03-22T01:18:01.655Z,33.92
2023-03-22T01:20:28.805Z,33.55
2023-03-22T01:22:55.385Z,40.28
2023-03-22T01:25:22.026Z,34.60
2023-03-22T01:27:48.510Z,36.50
2023-03-22T01:30:15.345Z,34.15
2023-03-22T01:32:42.152Z,43.90
2023-03-22T01:35:09.380Z,35.88
2023-03-22T01:37:36.027Z,39.42
2023-03-22T01:40:03.155Z,36.22
2023-03-22T01:42:29.686Z,32.78
2023-03-22T01:45:14.188Z,31.58
2023-03-22T01:47:49.285Z,34.13
2023-03-22T01:50:17.480Z,31.45
2023-03-22T01:52:44.340Z,42.30
2023-03-22T01:55:12.768Z,32.75
2023-03-22T01:57:41.984Z,35.80
2023-03-22T02:00:15.731Z,33.33
2023-03-22T02:02:43.931Z,29.25
2023-03-22T02:05:12.177Z,28.92
2023-03-22T02:07:40.759Z,33.53
2023-03-22T02:10:16.533Z,28.23
2023-03-22T02:13:31.073Z,28.70
2023-03-22T02:16:14.011Z,33.75
2023-03-22T02:18:54.539Z,26.75
2023-03-22T02:21:35.872Z,32.25
2023-03-22T02:24:05.116Z,33.83
2023-03-22T02:26:49.878Z,30.35
2023-03-22T02:29:29.931Z,28.85
2023-03-22T02:32:03.975Z,30.58
2023-03-22T02:34:40.874Z,29.65
2023-03-22T02:37:33.607Z,33.25
2023-03-22T02:40:12.105Z,35.78
2023-03-22T02:43:04.334Z,39.75
2023-03-22T02:45:45.691Z,36.35
2023-03-22T02:48:18.805Z,35.25
2023-03-22T02:51:33.205Z,35.33
2023-03-22T02:54:29.909Z,36.80
2023-03-22T02:57:02.986Z,33.35
2023-03-22T02:59:33.638Z,33.75
2023-03-22T03:02:03.533Z,37.25
2023-03-22T03:04:35.343Z,35.25
2023-03-22T03:09:32.981Z,42.88
2023-03-22T03:11:59.364Z,34.42
2023-03-22T03:14:27.351Z,43.90
2023-03-22T03:17:35.144Z,34.58
2023-03-22T03:20:24.223Z,38.92
2023-03-22T03:23:05.463Z,37.47
2023-03-22T03:25:43.340Z,39.40
2023-03-22T03:28:10.000Z,38.47
2023-03-22T03:30:48.032Z,37.58
2023-03-22T03:33:17.591Z,43.42
2023-03-22T03:35:53.311Z,37.67
2023-03-22T03:38:25.228Z,45.90
2023-03-22T03:40:57.030Z,47.13
2023-03-22T03:43:25.385Z,39.85
2023-03-22T03:45:53.566Z,35.75
2023-03-22T03:48:24.918Z,38.20
2023-03-22T03:50:53.474Z,41.17
2023-03-22T03:53:20.055Z,38.28
2023-03-22T03:55:46.583Z,40.45
2023-03-22T03:58:12.983Z,36.72
2023-03-22T04:00:39.650Z,38.20
2023-03-22T04:03:06.589Z,36.88
2023-03-22T04:05:33.547Z,33.13
2023-03-22T04:08:00.140Z,35.90
2023-03-22T04:10:26.556Z,34.60
2023-03-22T04:12:52.982Z,39.08
2023-03-22T04:15:19.468Z,38.65
2023-03-22T04:17:46.586Z,40.05
2023-03-22T04:20:13.813Z,36.72
2023-03-22T04:22:40.975Z,37.28
2023-03-22T04:25:11.924Z,36.22
2023-03-22T04:27:42.776Z,35.65
2023-03-22T04:30:12.332Z,35.95
2023-03-22T04:32:38.928Z,40.35
2023-03-22T04:35:05.843Z,34.10
2023-03-22T04:37:32.278Z,39.17
2023-03-22T04:39:59.131Z,37.33
2023-03-22T04:42:25.770Z,37.60
2023-03-22T04:44:52.481Z,34.53
2023-03-22T04:47:18.938Z,35.35
2023-03-22T04:49:45.527Z,38.80
2023-03-22T04:52:11.957Z,34.22
2023-03-22T04:54:38.550Z,33.75
2023-03-22T04:57:05.152Z,35.42
2023-03-22T04:59:31.594Z,34.42
2023-03-22T05:01:58.631Z,33.25
2023-03-22T05:04:25.750Z,35.35
2023-03-22T05:06:52.252Z,34.97
2023-03-22T05:09:21.501Z,34.65
2023-03-22T05:11:49.232Z,34.05
2023-03-22T05:14:15.827Z,38.03
2023-03-22T05:16:42.354Z,32.85
2023-03-22T05:19:13.775Z,36.78
2023-03-22T05:21:44.096Z,34.47
2023-03-22T05:24:11.768Z,31.48
2023-03-22T05:26:42.080Z,36.03
2023-03-22T05:29:10.839Z,31.40
2023-03-22T05:31:37.756Z,35.38
2023-03-22T05:34:04.553Z,34.78
2023-03-22T05:36:31.102Z,33.67
2023-03-22T05:38:57.900Z,38.25
2023-03-22T05:41:24.302Z,36.40
2023-03-22T05:43:51.039Z,39.22
2023-03-22T05:46:17.452Z,40.88
2023-03-22T05:48:43.849Z,34.10
2023-03-22T05:51:17.358Z,35.90
2023-03-22T05:53:44.931Z,35.58
2023-03-22T05:56:11.428Z,35.13
2023-03-22T05:58:37.877Z,33.40
2023-03-22T06:01:06.415Z,35.50
2023-03-22T06:03:32.882Z,38.70
2023-03-22T06:05:59.333Z,35.95
2023-03-22T06:08:26.686Z,37.10
2023-03-22T06:10:53.856Z,29.48
2023-03-22T06:13:20.806Z,32.10
2023-03-22T06:15:47.299Z,32.20
2023-03-22T06:18:13.956Z,35.50
2023-03-22T06:20:41.922Z,34.55
2023-03-22T06:23:08.537Z,32.38
2023-03-22T06:25:35.157Z,30.30
2023-03-22T06:28:01.892Z,34.50
2023-03-22T06:30:28.389Z,36.65
2023-03-22T06:32:55.290Z,34.17
2023-03-22T06:35:21.727Z,32.65
2023-03-22T06:37:48.120Z,34.42
2023-03-22T06:40:15.320Z,41.90
2023-03-22T06:42:41.766Z,33.80
2023-03-22T06:45:08.861Z,34.92
2023-03-22T06:47:35.493Z,32.22
2023-03-22T06:50:02.020Z,36.25
2023-03-22T06:52:28.430Z,32.05
2023-03-22T06:54:54.858Z,35.80
2023-03-22T06:57:21.490Z,38.15
2023-03-22T06:59:48.023Z,32.47
2023-03-22T07:02:14.480Z,30.45
2023-03-22T07:04:40.929Z,36.25
2023-03-22T07:07:07.411Z,34.22
2023-03-22T07:09:33.842Z,31.05
2023-03-22T07:12:00.471Z,34.75
2023-03-22T07:14:27.006Z,32.28
2023-03-22T07:16:53.460Z,32.63
2023-03-22T07:19:20.233Z,33.35
2023-03-22T07:21:46.697Z,28.90
2023-03-22T07:24:13.612Z,28.10
2023-03-22T07:26:40.801Z,30.52
2023-03-22T07:29:07.310Z,28.52
2023-03-22T07:31:37.614Z,30.00
2023-03-22T07:34:05.546Z,30.05
2023-03-22T07:36:32.760Z,31.10
2023-03-22T07:38:59.236Z,29.17
2023-03-22T07:41:27.043Z,30.13
2023-03-22T07:43:58.382Z,34.70
2023-03-22T07:46:28.975Z,33.97
2023-03-22T07:48:55.525Z,34.13
2023-03-22T07:51:22.017Z,31.58
2023-03-22T07:53:48.462Z,28.00
2023-03-22T07:56:15.326Z,33.78
2023-03-22T07:58:41.786Z,30.75
2023-03-22T08:01:09.747Z,27.25
2023-03-22T08:03:37.465Z,33.35
2023-03-22T08:06:07.562Z,36.15
2023-03-22T08:08:36.799Z,28.33
2023-03-22T08:11:04.453Z,29.25
2023-03-22T08:13:30.978Z,31.65
2023-03-22T08:15:57.535Z,27.85
2023-03-22T08:18:24.583Z,27.98
2023-03-22T08:20:59.325Z,27.50
2023-03-22T08:23:40.569Z,28.98
2023-03-22T08:26:09.458Z,27.10
2023-03-22T08:28:36.173Z,28.25
2023-03-22T08:31:09.371Z,31.55
2023-03-22T08:33:36.169Z,32.08
2023-03-22T08:36:08.277Z,30.70
2023-03-22T08:38:34.753Z,29.95
2023-03-22T08:41:01.220Z,33.40
2023-03-22T08:43:27.648Z,27.67
2023-03-22T08:45:54.230Z,24.95
2023-03-22T08:48:21.788Z,34.40
2023-03-22T08:50:48.284Z,30.98
2023-03-22T08:53:14.728Z,27.30
2023-03-22T08:55:44.700Z,26.55
2023-03-22T08:58:16.641Z,27.13
2023-03-22T09:00:49.079Z,26.02
2023-03-22T09:03:17.020Z,28.13
2023-03-22T09:05:44.065Z,21.17
2023-03-22T09:08:18.387Z,28.55
2023-03-22T09:10:51.113Z,23.33
2023-03-22T09:13:17.981Z,28.35
2023-03-22T09:15:45.043Z,21.77
2023-03-22T09:18:11.997Z,26.52
2023-03-22T09:20:39.041Z,24.00
2023-03-22T09:23:06.689Z,23.83
2023-03-22T09:25:33.203Z,23.27
2023-03-22T09:27:59.570Z,23.92
2023-03-22T09:30:26.184Z,26.67
2023-03-22T09:32:52.749Z,25.08
2023-03-22T09:35:19.281Z,21.40
2023-03-22T09:37:45.755Z,20.73
2023-03-22T09:40:13.373Z,23.25
2023-03-22T09:42:44.915Z,24.42
2023-03-22T09:45:16.818Z,29.83
2023-03-22T09:47:47.554Z,21.10
2023-03-22T09:50:19.941Z,22.48
2023-03-22T09:52:46.698Z,20.15
2023-03-22T09:55:22.348Z,25.42
2023-03-22T09:57:57.845Z,22.42
2023-03-22T10:00:47.671Z,21.88
2023-03-22T10:03:38.290Z,21.90
2023-03-22T10:06:24.846Z,19.95
2023-03-22T10:09:06.705Z,21.10
2023-03-22T10:14:39.105Z,18.38
2023-03-22T10:17:12.161Z,24.38
2023-03-22T10:19:48.300Z,22.15
2023-03-22T10:22:17.320Z,20.40
2023-03-22T10:24:48.971Z,22.27
2023-03-22T10:27:18.077Z,27.05
2023-03-22T10:30:04.372Z,16.95
2023-03-22T10:32:59.443Z,23.75
2023-03-22T10:35:28.585Z,21.30
2023-03-22T10:37:57.970Z,20.83
2023-03-22T10:40:34.084Z,22.30
2023-03-22T10:43:09.864Z,20.02
2023-03-22T10:45:37.268Z,25.15
2023-03-22T10:48:41.792Z,19.52
2023-03-22T10:51:15.963Z,24.13
2023-03-22T10:53:47.460Z,22.17
2023-03-22T10:56:18.782Z,20.45
2023-03-22T10:58:46.339Z,18.42
2023-03-22T11:01:17.202Z,19.15
2023-03-22T11:03:51.852Z,18.10
2023-03-22T11:06:19.679Z,19.42
2023-03-22T11:09:12.610Z,18.25
2023-03-22T11:11:50.670Z,14.48
2023-03-22T11:14:25.150Z,18.33
2023-03-22T11:17:06.754Z,18.88
2023-03-22T11:19:39.665Z,17.45
2023-03-22T11:22:19.121Z,17.60
2023-03-22T11:24:47.178Z,18.75
2023-03-22T11:27:21.949Z,19.60
2023-03-22T11:29:59.152Z,13.43
2023-03-22T11:32:30.195Z,12.63
2023-03-22T11:35:21.247Z,12.73
2023-03-22T11:37:50.628Z,17.00
2023-03-22T11:40:27.633Z,16.40
2023-03-22T11:43:15.341Z,17.67
2023-03-22T11:45:44.135Z,18.20
2023-03-22T11:48:18.780Z,15.93
2023-03-22T11:50:46.298Z,15.18
2023-03-22T11:53:17.174Z,14.48
2023-03-22T11:55:45.210Z,14.93
2023-03-22T11:58:37.379Z,14.60
2023-03-22T12:01:04.922Z,14.63
2023-03-22T12:03:38.935Z,16.98
2023-03-22T12:06:19.664Z,17.75
2023-03-22T12:08:52.561Z,13.80
2023-03-22T12:11:31.810Z,15.68
2023-03-22T12:14:03.624Z,18.27
2023-03-22T12:16:38.892Z,15.40
2023-03-22T12:19:21.888Z,15.57
2023-03-22T12:21:49.930Z,16.88
2023-03-22T12:24:30.695Z,13.63
2023-03-22T12:27:25.877Z,11.65
2023-03-22T12:30:08.512Z,15.05
2023-03-22T12:32:41.835Z,16.45
2023-03-22T12:35:17.648Z,15.48
2023-03-22T12:37:48.262Z,11.00
2023-03-22T12:40:28.348Z,13.88
2023-03-22T12:43:17.462Z,18.70
2023-03-22T12:45:49.118Z,14.43
2023-03-22T12:48:31.779Z,17.05
2023-03-22T12:51:02.088Z,10.25
2023-03-22T12:53:42.295Z,9.80
2023-03-22T12:56:12.998Z,9.77
2023-03-22T12:58:39.583Z,12.15
2023-03-22T13:01:17.614Z,5.85
2023-03-22T13:03:47.458Z,9.88
2023-03-22T13:06:46.310Z,9.07
2023-03-22T13:09:40.725Z,10.93
2023-03-22T13:12:19.235Z,10.13
2023-03-22T13:15:31.575Z,11.23
2023-03-22T13:18:05.284Z,10.52
2023-03-22T13:20:34.926Z,8.82
2023-03-22T13:23:04.531Z,12.10
2023-03-22T13:25:36.346Z,11.80
2023-03-22T13:30:55.577Z,11.13
2023-03-22T13:33:31.735Z,7.53
2023-03-22T13:36:07.435Z,7.43
2023-03-22T13:38:38.748Z,8.50
2023-03-22T13:41:22.834Z,8.68
2023-03-22T13:43:51.770Z,7.22
2023-03-22T13:46:19.824Z,9.20
2023-03-22T13:48:46.657Z,9.70
2023-03-22T13:51:22.278Z,10.25
2023-03-22T13:54:04.710Z,10.48
2023-03-22T13:56:52.276Z,7.47
2023-03-22T13:59:25.353Z,8.48
2023-03-22T14:02:27.775Z,10.90
2023-03-22T14:04:57.168Z,7.47
2023-03-22T14:07:37.257Z,6.55
2023-03-22T14:10:12.601Z,9.45
2023-03-22T14:12:48.080Z,8.65
2023-03-22T14:15:21.005Z,6.95
2023-03-22T14:18:00.626Z,6.72
2023-03-22T14:20:32.218Z,8.10
